BOX618 EDDF-VVTS
Flight info
| Callsign | BOX618 |
|---|---|
| Flight time | N/A |
| Altitude | 29000 |
| Route | SULUS7S SULUS Z650 VEMUT DCT DITIS DCT ALAMU DCT BUDOP DCT IRLOX DCT OPT DCT LUGEB DCT UDROS UM859 KARDE UL851 TOLUN/N0489F310 UL851 TBN UM11 REBLO DCT MATAL T916 SUBUT T923 ERLEV M11 RODAR A909 LEMOD N644 REGET/N0488F330 N644 DI M875 DOMET G590 BBN R460 CEA L507 LUDVI/N0488F350 L507 BKK N506 ELMOP R468 SAPEN SAPEN5B |
| Aircraft | B77L/H-SDE1E2E3FGHIJ2J3J4J5M1RWXY/LB1D1 |
Departure
| Time | N/A |
|---|---|
| Airport | Frankfurt Main Airport (EDDF) |
Arrival
| Time | 2026-05-03 21:37 |
|---|---|
| Airport | Tan Son Nhat International Airport (VVTS) |
| Time | Latitude | Longitude | Altitude | Speed | Heading |
|---|---|---|---|---|---|
| 2026-05-03 20:15 | 15.59920 | 98.48566 | 34906 ft | 496 kts | 142° |
| 2026-05-03 20:15 | 15.54688 | 98.53235 | 34925 ft | 496 kts | 142° |
| 2026-05-03 20:16 | 15.49457 | 98.57914 | 34928 ft | 497 kts | 140° |
| 2026-05-03 20:16 | 15.44744 | 98.63181 | 34928 ft | 501 kts | 131° |
| 2026-05-03 20:17 | 15.40400 | 98.68829 | 34934 ft | 502 kts | 131° |
| 2026-05-03 20:17 | 15.36036 | 98.74479 | 34937 ft | 503 kts | 131° |
| 2026-05-03 20:18 | 15.31632 | 98.80120 | 34935 ft | 504 kts | 131° |
| 2026-05-03 20:18 | 15.27206 | 98.85764 | 34930 ft | 505 kts | 131° |
| 2026-05-03 20:19 | 15.22767 | 98.91419 | 34943 ft | 506 kts | 131° |
| 2026-05-03 20:19 | 15.18326 | 98.97076 | 34917 ft | 507 kts | 131° |
| 2026-05-03 20:20 | 15.13874 | 99.02745 | 34919 ft | 507 kts | 131° |
| 2026-05-03 20:20 | 15.09457 | 99.08366 | 34912 ft | 507 kts | 131° |
| 2026-05-03 20:21 | 15.05014 | 99.14014 | 34902 ft | 506 kts | 131° |
| 2026-05-03 20:21 | 15.00573 | 99.19656 | 34911 ft | 505 kts | 131° |
| 2026-05-03 20:22 | 14.96136 | 99.25290 | 34895 ft | 505 kts | 131° |
| 2026-05-03 20:22 | 14.91700 | 99.30918 | 34894 ft | 505 kts | 131° |
| 2026-05-03 20:23 | 14.87263 | 99.36544 | 34882 ft | 505 kts | 131° |
| 2026-05-03 20:23 | 14.82823 | 99.42162 | 34884 ft | 504 kts | 131° |
| 2026-05-03 20:24 | 14.78380 | 99.47768 | 34868 ft | 505 kts | 131° |
| 2026-05-03 20:24 | 14.73932 | 99.53376 | 34885 ft | 505 kts | 131° |
| 2026-05-03 20:25 | 14.69478 | 99.58992 | 34872 ft | 505 kts | 131° |
| 2026-05-03 20:25 | 14.65016 | 99.64615 | 34866 ft | 507 kts | 131° |
| 2026-05-03 20:26 | 14.60542 | 99.70250 | 34860 ft | 508 kts | 131° |
| 2026-05-03 20:26 | 14.56055 | 99.75896 | 34861 ft | 509 kts | 131° |
| 2026-05-03 20:27 | 14.51563 | 99.81546 | 34863 ft | 510 kts | 131° |
| 2026-05-03 20:27 | 14.47062 | 99.87204 | 34853 ft | 510 kts | 131° |
| 2026-05-03 20:28 | 14.42559 | 99.92860 | 34864 ft | 510 kts | 131° |
| 2026-05-03 20:28 | 14.38058 | 99.98527 | 34862 ft | 511 kts | 131° |
| 2026-05-03 20:29 | 14.33561 | 100.04193 | 34862 ft | 510 kts | 131° |
| 2026-05-03 20:29 | 14.29065 | 100.09851 | 34862 ft | 510 kts | 131° |
| 2026-05-03 20:30 | 14.24571 | 100.15502 | 34865 ft | 509 kts | 131° |
| 2026-05-03 20:30 | 14.20083 | 100.21143 | 34865 ft | 509 kts | 131° |
| 2026-05-03 20:31 | 14.15596 | 100.26777 | 34871 ft | 508 kts | 131° |
| 2026-05-03 20:31 | 14.11108 | 100.32408 | 34874 ft | 508 kts | 131° |
| 2026-05-03 20:32 | 14.06622 | 100.38034 | 34874 ft | 508 kts | 131° |
| 2026-05-03 20:32 | 14.02133 | 100.43659 | 34866 ft | 508 kts | 131° |
| 2026-05-03 20:33 | 13.97642 | 100.49285 | 34854 ft | 509 kts | 131° |
| 2026-05-03 20:33 | 13.93147 | 100.54912 | 34858 ft | 509 kts | 131° |
| 2026-05-03 20:34 | 13.88872 | 100.60727 | 34862 ft | 511 kts | 124° |
| 2026-05-03 20:34 | 13.86073 | 100.66078 | 34871 ft | 512 kts | 118° |
| 2026-05-03 20:35 | 13.82390 | 100.73707 | 34859 ft | 512 kts | 118° |
| 2026-05-03 20:35 | 13.79160 | 100.80245 | 34860 ft | 512 kts | 118° |
| 2026-05-03 20:36 | 13.76461 | 100.85666 | 34861 ft | 512 kts | 118° |
| 2026-05-03 20:36 | 13.73195 | 100.92234 | 34862 ft | 512 kts | 118° |
| 2026-05-03 20:37 | 13.69952 | 100.98758 | 34866 ft | 512 kts | 118° |
| 2026-05-03 20:37 | 13.66707 | 101.05284 | 34868 ft | 512 kts | 118° |
| 2026-05-03 20:38 | 13.63462 | 101.11804 | 34871 ft | 512 kts | 118° |
| 2026-05-03 20:38 | 13.60217 | 101.18320 | 34865 ft | 512 kts | 118° |
| 2026-05-03 20:39 | 13.56977 | 101.24819 | 34875 ft | 510 kts | 118° |
| 2026-05-03 20:39 | 13.53749 | 101.31293 | 34867 ft | 508 kts | 118° |
| 2026-05-03 20:40 | 13.50556 | 101.37691 | 34873 ft | 505 kts | 118° |
| 2026-05-03 20:40 | 13.47365 | 101.44102 | 34872 ft | 503 kts | 118° |
| 2026-05-03 20:41 | 13.44188 | 101.50490 | 34876 ft | 501 kts | 118° |
| 2026-05-03 20:41 | 13.41015 | 101.56862 | 34878 ft | 501 kts | 118° |
| 2026-05-03 20:42 | 13.37877 | 101.63247 | 34878 ft | 501 kts | 117° |
| 2026-05-03 20:42 | 13.34790 | 101.69679 | 34880 ft | 502 kts | 117° |
| 2026-05-03 20:43 | 13.31695 | 101.76119 | 34891 ft | 504 kts | 117° |
| 2026-05-03 20:43 | 13.28579 | 101.82571 | 34887 ft | 505 kts | 117° |
| 2026-05-03 20:44 | 13.25453 | 101.89034 | 34885 ft | 506 kts | 117° |
| 2026-05-03 20:44 | 13.22318 | 101.95511 | 34886 ft | 507 kts | 117° |
| 2026-05-03 20:45 | 13.19173 | 102.01990 | 34892 ft | 507 kts | 117° |
| 2026-05-03 20:45 | 13.16024 | 102.08470 | 34887 ft | 507 kts | 117° |
| 2026-05-03 20:46 | 13.12882 | 102.14936 | 34886 ft | 506 kts | 117° |
| 2026-05-03 20:46 | 13.09744 | 102.21390 | 34884 ft | 505 kts | 117° |
| 2026-05-03 20:47 | 13.06610 | 102.27828 | 34881 ft | 504 kts | 117° |
| 2026-05-03 20:47 | 13.03483 | 102.34249 | 34882 ft | 503 kts | 117° |
| 2026-05-03 20:48 | 13.00358 | 102.40662 | 34886 ft | 502 kts | 117° |
| 2026-05-03 20:48 | 12.97237 | 102.47062 | 34888 ft | 501 kts | 117° |
| 2026-05-03 20:49 | 12.93904 | 102.53271 | 34886 ft | 500 kts | 122° |
| 2026-05-03 20:49 | 12.90261 | 102.59340 | 34880 ft | 500 kts | 122° |
| 2026-05-03 20:50 | 12.86608 | 102.65407 | 34881 ft | 500 kts | 122° |
| 2026-05-03 20:50 | 12.82976 | 102.71485 | 34880 ft | 500 kts | 122° |
| 2026-05-03 20:51 | 12.79354 | 102.77569 | 34875 ft | 500 kts | 122° |
| 2026-05-03 20:51 | 12.75732 | 102.83651 | 34872 ft | 500 kts | 122° |
| 2026-05-03 20:52 | 12.72110 | 102.89727 | 34883 ft | 500 kts | 122° |
| 2026-05-03 20:52 | 12.68489 | 102.95796 | 34881 ft | 499 kts | 122° |
| 2026-05-03 20:53 | 12.64867 | 103.01862 | 34882 ft | 499 kts | 122° |
| 2026-05-03 20:53 | 12.61245 | 103.07923 | 34876 ft | 499 kts | 122° |
| 2026-05-03 20:54 | 12.57621 | 103.13984 | 34883 ft | 499 kts | 122° |
| 2026-05-03 20:54 | 12.52189 | 103.23062 | 34880 ft | 499 kts | 121° |
| 2026-05-03 20:55 | 12.48566 | 103.29112 | 34883 ft | 498 kts | 121° |
| 2026-05-03 20:55 | 12.44940 | 103.35162 | 34876 ft | 498 kts | 121° |
| 2026-05-03 20:56 | 12.41319 | 103.41202 | 34898 ft | 497 kts | 121° |
| 2026-05-03 20:56 | 12.37703 | 103.47229 | 34890 ft | 496 kts | 121° |
| 2026-05-03 20:57 | 12.34098 | 103.53232 | 34879 ft | 494 kts | 121° |
| 2026-05-03 20:57 | 12.30529 | 103.59174 | 34882 ft | 493 kts | 121° |
| 2026-05-03 20:58 | 12.26941 | 103.65144 | 34897 ft | 492 kts | 121° |
| 2026-05-03 20:58 | 12.23356 | 103.71104 | 34895 ft | 492 kts | 121° |
| 2026-05-03 20:59 | 12.19761 | 103.77057 | 34896 ft | 492 kts | 121° |
| 2026-05-03 20:59 | 12.16155 | 103.83010 | 34891 ft | 493 kts | 121° |
| 2026-05-03 21:00 | 12.13129 | 103.88006 | 34888 ft | 494 kts | 121° |
| 2026-05-03 21:00 | 12.08925 | 103.94947 | 34902 ft | 495 kts | 121° |
| 2026-05-03 21:01 | 12.05301 | 104.00928 | 34903 ft | 496 kts | 121° |
| 2026-05-03 21:01 | 12.01669 | 104.06916 | 34904 ft | 496 kts | 121° |
| 2026-05-03 21:02 | 11.98038 | 104.12902 | 34891 ft | 495 kts | 121° |
| 2026-05-03 21:02 | 11.94417 | 104.18867 | 34896 ft | 494 kts | 121° |
| 2026-05-03 21:03 | 11.90802 | 104.24820 | 34890 ft | 493 kts | 121° |
| 2026-05-03 21:03 | 11.87189 | 104.30755 | 34888 ft | 491 kts | 121° |
| 2026-05-03 21:04 | 11.83579 | 104.36671 | 34890 ft | 491 kts | 121° |
| 2026-05-03 21:04 | 11.79974 | 104.42576 | 34885 ft | 490 kts | 121° |
| 2026-05-03 21:05 | 11.76367 | 104.48484 | 34888 ft | 490 kts | 121° |
| 2026-05-03 21:05 | 11.72759 | 104.54391 | 34886 ft | 491 kts | 121° |
| 2026-05-03 21:06 | 11.69148 | 104.60301 | 34886 ft | 491 kts | 121° |
| 2026-05-03 21:06 | 11.65528 | 104.66220 | 34887 ft | 492 kts | 121° |
| 2026-05-03 21:07 | 11.61903 | 104.72145 | 34880 ft | 492 kts | 121° |
| 2026-05-03 21:07 | 11.58276 | 104.78071 | 34884 ft | 493 kts | 121° |
| 2026-05-03 21:08 | 11.54699 | 104.84039 | 34879 ft | 493 kts | 118° |
| 2026-05-03 21:08 | 11.51946 | 104.90432 | 34882 ft | 493 kts | 111° |
| 2026-05-03 21:09 | 11.49474 | 104.96951 | 34878 ft | 494 kts | 110° |
| 2026-05-03 21:09 | 11.46974 | 105.03473 | 34884 ft | 495 kts | 111° |
| 2026-05-03 21:10 | 11.44440 | 105.10001 | 34880 ft | 495 kts | 111° |
| 2026-05-03 21:10 | 11.41890 | 105.16535 | 34880 ft | 496 kts | 111° |
| 2026-05-03 21:11 | 11.39339 | 105.23069 | 34727 ft | 495 kts | 111° |
| 2026-05-03 21:11 | 11.38065 | 105.26331 | 34371 ft | 496 kts | 111° |
| 2026-05-03 21:11 | 11.36787 | 105.29605 | 33948 ft | 498 kts | 111° |
| 2026-05-03 21:12 | 11.35505 | 105.32887 | 33489 ft | 500 kts | 111° |
| 2026-05-03 21:12 | 11.34238 | 105.36129 | 33161 ft | 498 kts | 111° |
| 2026-05-03 21:12 | 11.32964 | 105.39390 | 32952 ft | 493 kts | 111° |
| 2026-05-03 21:12 | 11.31701 | 105.42620 | 32741 ft | 489 kts | 111° |
| 2026-05-03 21:13 | 11.30445 | 105.45831 | 32479 ft | 487 kts | 111° |
| 2026-05-03 21:13 | 11.29193 | 105.49030 | 32187 ft | 485 kts | 111° |
| 2026-05-03 21:13 | 11.27946 | 105.52214 | 31899 ft | 483 kts | 112° |
| 2026-05-03 21:13 | 11.26706 | 105.55383 | 31676 ft | 480 kts | 112° |
| 2026-05-03 21:14 | 11.25471 | 105.58534 | 31442 ft | 478 kts | 112° |
| 2026-05-03 21:14 | 11.24243 | 105.61667 | 31206 ft | 475 kts | 112° |
| 2026-05-03 21:14 | 11.23022 | 105.64783 | 30964 ft | 472 kts | 112° |
| 2026-05-03 21:14 | 11.21809 | 105.67876 | 30512 ft | 470 kts | 112° |
| 2026-05-03 21:15 | 11.20600 | 105.70957 | 30026 ft | 466 kts | 112° |
| 2026-05-03 21:15 | 11.19401 | 105.74012 | 29436 ft | 463 kts | 112° |
| 2026-05-03 21:15 | 11.18209 | 105.77051 | 28864 ft | 460 kts | 112° |
| 2026-05-03 21:15 | 11.17026 | 105.80064 | 28333 ft | 457 kts | 112° |
| 2026-05-03 21:16 | 11.15852 | 105.83054 | 27815 ft | 453 kts | 112° |
| 2026-05-03 21:16 | 11.14687 | 105.86018 | 27310 ft | 450 kts | 112° |
| 2026-05-03 21:16 | 11.13529 | 105.88965 | 26794 ft | 446 kts | 112° |
| 2026-05-03 21:16 | 11.12380 | 105.91888 | 26300 ft | 443 kts | 112° |
| 2026-05-03 21:17 | 11.11237 | 105.94793 | 25792 ft | 441 kts | 111° |
| 2026-05-03 21:17 | 11.10485 | 105.96706 | 25452 ft | 439 kts | 111° |
| 2026-05-03 21:17 | 11.08972 | 106.00556 | 24785 ft | 436 kts | 112° |
| 2026-05-03 21:17 | 11.07849 | 106.03417 | 24292 ft | 434 kts | 112° |
| 2026-05-03 21:18 | 11.06729 | 106.06268 | 23797 ft | 432 kts | 112° |
| 2026-05-03 21:18 | 11.05615 | 106.09104 | 23268 ft | 431 kts | 112° |
| 2026-05-03 21:18 | 11.04506 | 106.11926 | 22724 ft | 428 kts | 112° |
| 2026-05-03 21:18 | 11.03404 | 106.14729 | 22212 ft | 425 kts | 112° |
| 2026-05-03 21:19 | 11.02260 | 106.17472 | 21717 ft | 418 kts | 118° |
| 2026-05-03 21:19 | 11.00545 | 106.19824 | 21241 ft | 413 kts | 137° |
| 2026-05-03 21:19 | 10.98393 | 106.21708 | 20812 ft | 406 kts | 139° |
| 2026-05-03 21:19 | 10.96269 | 106.23589 | 20347 ft | 404 kts | 138° |
| 2026-05-03 21:20 | 10.94206 | 106.25458 | 19895 ft | 402 kts | 137° |
| 2026-05-03 21:20 | 10.92134 | 106.27354 | 19426 ft | 400 kts | 137° |
| 2026-05-03 21:20 | 10.90072 | 106.29248 | 18965 ft | 399 kts | 137° |
| 2026-05-03 21:20 | 10.88015 | 106.31139 | 18500 ft | 398 kts | 137° |
| 2026-05-03 21:21 | 10.85962 | 106.33026 | 18012 ft | 397 kts | 137° |
| 2026-05-03 21:21 | 10.83918 | 106.34904 | 17502 ft | 395 kts | 137° |
| 2026-05-03 21:21 | 10.81880 | 106.36775 | 17039 ft | 393 kts | 137° |
| 2026-05-03 21:21 | 10.79857 | 106.38632 | 16570 ft | 391 kts | 137° |
| 2026-05-03 21:22 | 10.77845 | 106.40478 | 16114 ft | 389 kts | 137° |
| 2026-05-03 21:22 | 10.75840 | 106.42317 | 15672 ft | 387 kts | 137° |
| 2026-05-03 21:22 | 10.73847 | 106.44145 | 15210 ft | 385 kts | 137° |
| 2026-05-03 21:22 | 10.71861 | 106.45965 | 14766 ft | 384 kts | 137° |
| 2026-05-03 21:23 | 10.69880 | 106.47779 | 14304 ft | 383 kts | 137° |
| 2026-05-03 21:23 | 10.67903 | 106.49588 | 13869 ft | 381 kts | 137° |
| 2026-05-03 21:23 | 10.65948 | 106.51376 | 13528 ft | 375 kts | 137° |
| 2026-05-03 21:23 | 10.64673 | 106.52543 | 13310 ft | 370 kts | 137° |
| 2026-05-03 21:24 | 10.62783 | 106.54271 | 12995 ft | 362 kts | 137° |
| 2026-05-03 21:24 | 10.60933 | 106.55963 | 12695 ft | 354 kts | 137° |
| 2026-05-03 21:24 | 10.59127 | 106.57625 | 12390 ft | 345 kts | 135° |
| 2026-05-03 21:24 | 10.57690 | 106.59535 | 12049 ft | 339 kts | 115° |
| 2026-05-03 21:25 | 10.56854 | 106.61730 | 11665 ft | 327 kts | 110° |
| 2026-05-03 21:25 | 10.56059 | 106.63849 | 11191 ft | 316 kts | 111° |
| 2026-05-03 21:25 | 10.55255 | 106.65887 | 10714 ft | 306 kts | 111° |
| 2026-05-03 21:25 | 10.54466 | 106.67865 | 10265 ft | 297 kts | 111° |
| 2026-05-03 21:26 | 10.53701 | 106.69783 | 9972 ft | 290 kts | 110° |
| 2026-05-03 21:26 | 10.52950 | 106.71664 | 9708 ft | 285 kts | 110° |
| 2026-05-03 21:26 | 10.52247 | 106.73517 | 9370 ft | 275 kts | 102° |
| 2026-05-03 21:26 | 10.52261 | 106.75390 | 9023 ft | 266 kts | 70° |
| 2026-05-03 21:27 | 10.53189 | 106.76992 | 8759 ft | 264 kts | 50° |
| 2026-05-03 21:27 | 10.54535 | 106.78268 | 8465 ft | 266 kts | 36° |
| 2026-05-03 21:27 | 10.56188 | 106.79135 | 8178 ft | 269 kts | 24° |
| 2026-05-03 21:27 | 10.57953 | 106.79794 | 7909 ft | 272 kts | 21° |
| 2026-05-03 21:28 | 10.59750 | 106.80424 | 7629 ft | 274 kts | 21° |
| 2026-05-03 21:28 | 10.61549 | 106.81056 | 7406 ft | 273 kts | 21° |
| 2026-05-03 21:28 | 10.63330 | 106.81691 | 7204 ft | 270 kts | 22° |
| 2026-05-03 21:28 | 10.65095 | 106.82329 | 7019 ft | 268 kts | 22° |
| 2026-05-03 21:29 | 10.66845 | 106.82968 | 6828 ft | 266 kts | 22° |
| 2026-05-03 21:29 | 10.68550 | 106.83594 | 6627 ft | 261 kts | 22° |
| 2026-05-03 21:29 | 10.70253 | 106.84224 | 6426 ft | 255 kts | 22° |
| 2026-05-03 21:29 | 10.71906 | 106.84840 | 6214 ft | 252 kts | 22° |
| 2026-05-03 21:30 | 10.73552 | 106.85452 | 6008 ft | 251 kts | 22° |
| 2026-05-03 21:30 | 10.75188 | 106.86058 | 5810 ft | 250 kts | 22° |
| 2026-05-03 21:30 | 10.76817 | 106.86668 | 5613 ft | 249 kts | 22° |
| 2026-05-03 21:30 | 10.78447 | 106.87273 | 5411 ft | 251 kts | 22° |
| 2026-05-03 21:31 | 10.80074 | 106.87879 | 5159 ft | 253 kts | 22° |
| 2026-05-03 21:31 | 10.81728 | 106.88496 | 4872 ft | 252 kts | 23° |
| 2026-05-03 21:31 | 10.83354 | 106.89101 | 4606 ft | 245 kts | 21° |
| 2026-05-03 21:31 | 10.85002 | 106.89284 | 4283 ft | 238 kts | 348° |
| 2026-05-03 21:32 | 10.86453 | 106.88549 | 4077 ft | 234 kts | 316° |
| 2026-05-03 21:32 | 10.87419 | 106.87261 | 3851 ft | 225 kts | 295° |
| 2026-05-03 21:32 | 10.87858 | 106.85785 | 3661 ft | 213 kts | 279° |
| 2026-05-03 21:32 | 10.88094 | 106.84331 | 3372 ft | 204 kts | 277° |
| 2026-05-03 21:33 | 10.88301 | 106.82914 | 3151 ft | 202 kts | 273° |
| 2026-05-03 21:33 | 10.88108 | 106.81519 | 2937 ft | 200 kts | 250° |
| 2026-05-03 21:33 | 10.87675 | 106.80172 | 2706 ft | 197 kts | 248° |
| 2026-05-03 21:33 | 10.87218 | 106.78913 | 2499 ft | 182 kts | 247° |
| 2026-05-03 21:34 | 10.86781 | 106.77742 | 2285 ft | 170 kts | 247° |
| 2026-05-03 21:34 | 10.86366 | 106.76639 | 2095 ft | 166 kts | 247° |
| 2026-05-03 21:34 | 10.85954 | 106.75545 | 1882 ft | 166 kts | 248° |
| 2026-05-03 21:34 | 10.85545 | 106.74456 | 1662 ft | 164 kts | 248° |
| 2026-05-03 21:35 | 10.85140 | 106.73377 | 1454 ft | 163 kts | 248° |
| 2026-05-03 21:35 | 10.84733 | 106.72294 | 1246 ft | 164 kts | 248° |
| 2026-05-03 21:35 | 10.84322 | 106.71202 | 1037 ft | 166 kts | 247° |
| 2026-05-03 21:35 | 10.83911 | 106.70108 | 835 ft | 165 kts | 248° |
| 2026-05-03 21:36 | 10.83512 | 106.69036 | 623 ft | 160 kts | 248° |
| 2026-05-03 21:36 | 10.83117 | 106.67984 | 391 ft | 159 kts | 248° |
| 2026-05-03 21:36 | 10.82717 | 106.66930 | 180 ft | 160 kts | 248° |
| 2026-05-03 21:36 | 10.82321 | 106.65877 | 45 ft | 157 kts | 249° |
| 2026-05-03 21:37 | 10.81985 | 106.64993 | 39 ft | 95 kts | 249° |
| 2026-05-03 21:37 | 10.81842 | 106.64617 | 40 ft | 30 kts | 249° |
| 2026-05-03 21:37 | 10.81753 | 106.64439 | 41 ft | 26 kts | 227° |
| 2026-05-03 21:37 | 10.81638 | 106.64330 | 38 ft | 16 kts | 219° |
| 2026-05-03 21:38 | 10.81558 | 106.64297 | 40 ft | 0 kts | 183° |
| 2026-05-03 21:39 | 10.81557 | 106.64297 | 40 ft | 1 kts | 183° |
| 2026-05-03 21:39 | 10.81529 | 106.64299 | 40 ft | 8 kts | 169° |
| 2026-05-03 21:39 | 10.81458 | 106.64326 | 42 ft | 12 kts | 157° |
| 2026-05-03 21:39 | 10.81380 | 106.64356 | 42 ft | 12 kts | 157° |
| 2026-05-03 21:40 | 10.81301 | 106.64387 | 41 ft | 12 kts | 162° |
| 2026-05-03 21:40 | 10.81236 | 106.64438 | 41 ft | 12 kts | 111° |
| 2026-05-03 21:40 | 10.81220 | 106.64524 | 44 ft | 12 kts | 99° |
| 2026-05-03 21:40 | 10.81208 | 106.64611 | 44 ft | 13 kts | 91° |
| 2026-05-03 21:41 | 10.81229 | 106.64699 | 43 ft | 13 kts | 69° |
| 2026-05-03 21:41 | 10.81262 | 106.64785 | 43 ft | 13 kts | 69° |
| 2026-05-03 21:41 | 10.81297 | 106.64878 | 43 ft | 15 kts | 69° |
| 2026-05-03 21:41 | 10.81337 | 106.64986 | 43 ft | 18 kts | 69° |
| 2026-05-03 21:42 | 10.81384 | 106.65112 | 42 ft | 20 kts | 69° |
| 2026-05-03 21:42 | 10.81438 | 106.65252 | 42 ft | 22 kts | 69° |
| 2026-05-03 21:42 | 10.81494 | 106.65401 | 41 ft | 23 kts | 69° |
| 2026-05-03 21:42 | 10.81550 | 106.65551 | 41 ft | 23 kts | 69° |
| 2026-05-03 21:43 | 10.81606 | 106.65698 | 41 ft | 19 kts | 69° |
| 2026-05-03 21:43 | 10.81603 | 106.65782 | 41 ft | 12 kts | 141° |
| 2026-05-03 21:43 | 10.81523 | 106.65790 | 40 ft | 12 kts | 184° |
| 2026-05-03 21:43 | 10.81453 | 106.65786 | 42 ft | 8 kts | 176° |
| 2026-05-03 21:44 | 10.81422 | 106.65831 | 42 ft | 9 kts | 101° |
| 2026-05-03 21:44 | 10.81418 | 106.65864 | 42 ft | 3 kts | 95° |
| 2026-05-03 21:44 | 10.81417 | 106.65871 | 42 ft | 0 kts | 95° |
| 2026-05-03 21:45 | 10.81418 | 106.65871 | 42 ft | 0 kts | 95° |
| 2026-05-03 21:53 | 10.81418 | 106.65870 | 42 ft | 0 kts | 95° |